Time;durP1;ratioP1;P1;durP2;ratioP2;P2;SDS_P1;SDS_P2;PMS_P1;PMS_P2;Temp;Humidity;BMP_temperature;BMP_pressure;BME280_temperature;BME280_humidity;BME280_pressure;Samples;Min_cycle;Max_cycle;Signal;HPM_P1;HPM_P2
2023/03/01 00:02:34;;;;;;;0.10;0.10;;;;;;;-145.06;100.00;53787.06;10553671;28;20050;-80
2023/03/01 00:07:34;;;;;;;0.10;0.10;;;;;;;-145.06;100.00;53795.19;10560892;28;20301;-79
2023/03/01 00:12:36;;;;;;;0.13;0.13;;;;;;;-145.06;100.00;53825.56;10553146;28;20032;-80
2023/03/01 00:17:36;;;;;;;0.10;0.10;;;;;;;-145.06;100.00;53819.47;10545635;28;20250;-80
2023/03/01 00:22:37;;;;;;;0.17;0.17;;;;;;;-145.06;100.00;53795.19;10546436;28;20024;-80
2023/03/01 00:27:37;;;;;;;0.10;0.10;;;;;;;-145.06;100.00;53781.00;10554956;28;20047;-80
2023/03/01 00:32:37;;;;;;;0.10;0.10;;;;;;;-145.06;100.00;53809.34;10550911;28;20031;-80
2023/03/01 00:37:37;;;;;;;0.20;0.20;;;;;;;-145.06;100.00;53787.06;10558144;28;20238;-80
2023/03/01 00:42:38;;;;;;;0.20;0.20;;;;;;;-145.06;100.00;53829.59;10562605;28;20016;-80
2023/03/01 00:47:38;;;;;;;0.10;0.10;;;;;;;-145.06;100.00;53813.41;10544631;28;20036;-80
2023/03/01 00:52:38;;;;;;;0.20;0.20;;;;;;;-145.06;100.00;53805.31;10552176;28;20131;-80
2023/03/01 00:57:39;;;;;;;0.03;0.03;;;;;;;-145.06;100.00;53789.09;10552128;28;20310;-79
2023/03/01 01:02:39;;;;;;;0.10;0.10;;;;;;;-145.06;100.00;53770.88;10548096;28;20023;-80
2023/03/01 01:07:39;;;;;;;0.10;0.10;;;;;;;-145.06;100.00;53811.38;10531824;28;20172;-80
2023/03/01 01:12:40;;;;;;;0.10;0.10;;;;;;;-145.06;100.00;53785.06;10556350;28;20671;-79
2023/03/01 01:17:40;;;;;;;0.20;0.20;;;;;;;-145.06;100.00;53795.19;10552991;28;20376;-80
2023/03/01 01:22:41;;;;;;;0.10;0.10;;;;;;;-145.06;100.00;53813.41;10530638;28;20050;-80
2023/03/01 01:27:41;;;;;;;0.10;0.10;;;;;;;-145.06;100.00;53847.84;10567004;28;20118;-80
2023/03/01 01:32:41;;;;;;;0.10;0.10;;;;;;;-145.06;100.00;53841.75;10546975;28;20024;-80
2023/03/01 01:37:41;;;;;;;0.10;0.10;;;;;;;-145.06;100.00;53793.16;10567457;28;20135;-80
2023/03/01 01:42:42;;;;;;;0.10;0.10;;;;;;;-145.06;100.00;53776.94;10567172;28;20479;-80
2023/03/01 01:47:42;;;;;;;0.10;0.10;;;;;;;-145.06;100.00;53789.09;10578032;28;20427;-80
2023/03/01 01:52:42;;;;;;;0.10;0.10;;;;;;;-145.06;100.00;53829.59;10563909;28;20028;-80
2023/03/01 01:57:46;;;;;;;0.10;0.10;;;;;;;-145.06;100.00;53821.50;10555917;28;20067;-79
2023/03/01 02:02:51;;;;;;;0.10;0.10;;;;;;;-145.06;100.00;53795.19;10545516;28;20382;-79
2023/03/01 02:07:52;;;;;;;0.10;0.10;;;;;;;-145.06;100.00;53837.72;10557257;28;20091;-79
2023/03/01 02:12:55;;;;;;;0.17;0.17;;;;;;;-145.06;100.00;53835.69;10550508;28;20028;-79
2023/03/01 02:17:56;;;;;;;0.10;0.10;;;;;;;-145.06;100.00;53823.53;10571940;28;20042;-79
2023/03/01 02:22:56;;;;;;;0.15;0.15;;;;;;;-145.06;100.00;53764.81;10549129;28;20103;-80
2023/03/01 02:28:00;;;;;;;0.10;0.10;;;;;;;-145.06;100.00;53811.38;10549183;28;20108;-80
2023/03/01 02:33:02;;;;;;;0.20;0.20;;;;;;;-145.06;100.00;53815.44;10556520;28;20054;-79
2023/03/01 02:38:07;;;;;;;0.20;0.20;;;;;;;-145.06;100.00;53801.25;10564969;28;20043;-79
2023/03/01 02:43:11;;;;;;;0.30;0.30;;;;;;;-145.06;100.00;53843.78;10548186;28;20407;-79
2023/03/01 02:48:12;;;;;;;0.15;0.15;;;;;;;-145.06;100.00;53831.63;10542198;28;20059;-80
2023/03/01 02:53:19;;;;;;;0.10;0.10;;;;;;;-145.06;100.00;53801.25;10545602;28;20132;-80
2023/03/01 02:58:20;;;;;;;0.20;0.20;;;;;;;-145.06;100.00;53843.78;10551189;28;20067;-80
2023/03/01 03:03:21;;;;;;;0.10;0.10;;;;;;;-145.06;100.00;53845.81;10560575;28;20038;-79
2023/03/01 03:08:23;;;;;;;0.10;0.10;;;;;;;-145.06;100.00;53795.19;10533186;28;20036;-78
2023/03/01 03:13:28;;;;;;;0.10;0.10;;;;;;;-145.06;100.00;53813.41;10546930;28;20039;-79
2023/03/01 03:18:28;;;;;;;0.20;0.20;;;;;;;-145.06;100.00;53821.50;10533717;28;20054;-79
2023/03/01 03:23:29;;;;;;;0.10;0.10;;;;;;;-145.06;100.00;53778.97;10560639;28;20285;-78
2023/03/01 03:28:33;;;;;;;0.10;0.10;;;;;;;-145.06;100.00;53827.59;10566549;28;20020;-79
2023/03/01 03:33:34;;;;;;;0.10;0.10;;;;;;;-145.06;100.00;53831.63;10565552;28;20070;-79
2023/03/01 03:38:34;;;;;;;0.20;0.20;;;;;;;-145.06;100.00;53823.53;10553277;28;20050;-79
2023/03/01 03:43:36;;;;;;;0.20;0.20;;;;;;;-145.06;100.00;53813.41;10529969;28;20043;-79
2023/03/01 03:48:44;;;;;;;0.10;0.10;;;;;;;-145.06;100.00;53835.69;10550575;28;20028;-79
2023/03/01 03:53:45;;;;;;;0.30;0.30;;;;;;;-145.06;100.00;53827.59;10546301;28;20055;-79
2023/03/01 03:58:45;;;;;;;0.30;0.30;;;;;;;-145.06;100.00;53795.19;10541118;28;20070;-79
2023/03/01 04:03:46;;;;;;;0.20;0.20;;;;;;;-145.06;100.00;53815.44;10549643;28;20246;-79
2023/03/01 04:08:50;;;;;;;0.20;0.20;;;;;;;-145.06;100.00;53817.47;10522537;28;20100;-79
2023/03/01 04:13:53;;;;;;;0.15;0.15;;;;;;;-145.06;100.00;53835.69;10566812;28;20028;-79
2023/03/01 04:18:53;;;;;;;0.20;0.20;;;;;;;-145.06;100.00;53855.94;10545774;28;20023;-79
2023/03/01 04:23:54;;;;;;;0.15;0.15;;;;;;;-145.06;100.00;53833.66;10540698;28;20505;-79
2023/03/01 04:28:54;;;;;;;0.10;0.10;;;;;;;-145.06;100.00;53857.97;10554640;28;20026;-79
2023/03/01 04:33:55;;;;;;;0.20;0.20;;;;;;;-145.06;100.00;53827.59;10533352;28;20117;-84
2023/03/01 04:38:56;;;;;;;0.20;0.20;;;;;;;-145.06;100.00;53811.38;10519362;22;20147;-84
2023/03/01 04:43:59;;;;;;;0.10;0.10;;;;;;;-145.06;100.00;53791.13;10521271;28;20092;-84
2023/03/01 04:49:00;;;;;;;0.10;0.10;;;;;;;-145.06;100.00;53837.72;10521679;28;20032;-81
2023/03/01 04:54:00;;;;;;;0.00;0.00;;;;;;;-145.06;100.00;53817.47;10522397;28;20390;-83
2023/03/01 04:59:00;;;;;;;0.10;0.10;;;;;;;-145.06;100.00;53817.47;10522145;28;20280;-84
2023/03/01 05:04:02;;;;;;;0.15;0.15;;;;;;;-145.06;100.00;53811.38;10522701;28;20035;-82
2023/03/01 05:09:03;;;;;;;0.20;0.20;;;;;;;-145.06;100.00;53831.63;10519941;28;20038;-84
2023/03/01 05:14:04;;;;;;;0.15;0.15;;;;;;;-145.06;100.00;53795.19;10533321;28;20368;-83
2023/03/01 05:19:22;;;;;;;0.10;0.10;;;;;;;-145.06;100.00;53821.50;10519080;28;20266;-84
2023/03/01 05:24:22;;;;;;;0.10;0.10;;;;;;;-145.06;100.00;53791.13;10521431;28;20071;-84
2023/03/01 05:29:24;;;;;;;0.10;0.10;;;;;;;-145.06;100.00;53823.53;10521504;28;20028;-83
2023/03/01 05:34:28;;;;;;;0.13;0.13;;;;;;;-145.06;100.00;53831.63;10526034;28;20032;-84
2023/03/01 05:39:29;;;;;;;0.20;0.20;;;;;;;-145.06;100.00;53785.06;10520607;28;20093;-84
2023/03/01 05:44:30;;;;;;;0.10;0.10;;;;;;;-145.06;100.00;53819.47;10524951;28;20050;-83
2023/03/01 05:49:31;;;;;;;0.10;0.10;;;;;;;-145.06;100.00;53831.63;10542785;28;20035;-83
2023/03/01 05:54:33;;;;;;;0.20;0.20;;;;;;;-145.06;100.00;53815.44;10540544;28;20036;-84
2023/03/01 05:59:33;;;;;;;0.20;0.20;;;;;;;-145.06;100.00;53809.34;10519049;28;20119;-83
2023/03/01 06:04:33;;;;;;;0.00;0.00;;;;;;;-145.06;100.00;53862.00;10516187;28;20055;-84
2023/03/01 06:09:34;;;;;;;0.10;0.10;;;;;;;-145.06;100.00;53843.78;10514057;28;20142;-83
2023/03/01 06:14:34;;;;;;;0.28;0.28;;;;;;;-145.06;100.00;53815.44;10520563;28;20281;-83
2023/03/01 06:19:34;;;;;;;0.10;0.10;;;;;;;-145.06;100.00;53835.69;10516401;28;20274;-83
2023/03/01 06:24:35;;;;;;;0.20;0.20;;;;;;;-145.06;100.00;53827.59;10518980;28;20020;-83
2023/03/01 06:29:35;;;;;;;0.10;0.10;;;;;;;-145.06;100.00;53833.66;10544809;28;20266;-84
2023/03/01 06:34:35;;;;;;;0.10;0.10;;;;;;;-145.06;100.00;53821.50;10541360;28;20032;-84
2023/03/01 06:39:36;;;;;;;0.20;0.20;;;;;;;-145.06;100.00;53819.47;10547176;28;20270;-83
2023/03/01 06:44:37;;;;;;;0.10;0.10;;;;;;;-145.06;100.00;53843.78;10548079;28;20292;-85
2023/03/01 06:49:38;;;;;;;0.13;0.13;;;;;;;-145.06;100.00;53823.53;10560112;28;20110;-83
2023/03/01 06:54:38;;;;;;;0.17;0.17;;;;;;;-145.06;100.00;53819.47;10567869;28;20032;-85
2023/03/01 06:59:39;;;;;;;0.10;0.10;;;;;;;-145.06;100.00;53827.59;10544111;28;20483;-83
2023/03/01 07:04:39;;;;;;;0.00;0.00;;;;;;;-145.06;100.00;53799.22;10526247;28;20165;-84
2023/03/01 07:09:39;;;;;;;0.00;0.00;;;;;;;-145.06;100.00;53823.53;10526309;28;20123;-84
2023/03/01 07:14:40;;;;;;;0.10;0.10;;;;;;;-145.06;100.00;53819.47;10522585;28;20228;-84
2023/03/01 07:19:40;;;;;;;0.10;0.10;;;;;;;-145.06;100.00;53827.59;10525445;28;20669;-84
2023/03/01 07:24:41;;;;;;;0.10;0.10;;;;;;;-145.06;100.00;53803.28;10528113;28;20222;-84
2023/03/01 07:29:41;;;;;;;0.00;0.00;;;;;;;-145.06;100.00;53815.44;10527360;28;20032;-84
2023/03/01 07:34:42;;;;;;;0.03;0.03;;;;;;;-145.06;100.00;53807.31;10521810;28;20032;-83
2023/03/01 07:39:42;;;;;;;0.00;0.00;;;;;;;-145.06;100.00;53781.00;10528597;28;20035;-84
2023/03/01 07:44:42;;;;;;;0.13;0.13;;;;;;;-145.06;100.00;53805.31;10523771;28;20258;-85
2023/03/01 07:49:43;;;;;;;0.00;0.00;;;;;;;-145.06;100.00;53823.53;10528292;28;20061;-84
2023/03/01 07:54:46;;;;;;;0.10;0.10;;;;;;;-145.06;100.00;53787.06;10521319;28;20331;-84
2023/03/01 07:59:46;;;;;;;0.10;0.10;;;;;;;-145.06;100.00;53801.25;10526290;28;20270;-85
2023/03/01 08:04:47;;;;;;;0.00;0.00;;;;;;;-145.06;100.00;53756.69;10522716;28;20024;-85
2023/03/01 08:09:47;;;;;;;0.10;0.10;;;;;;;-145.06;100.00;53774.94;10521138;28;20027;-83
2023/03/01 08:14:47;;;;;;;0.00;0.00;;;;;;;-145.06;100.00;53815.44;10521163;28;20031;-85
2023/03/01 08:19:48;;;;;;;0.10;0.10;;;;;;;-145.06;100.00;53789.09;10522895;28;20515;-84
2023/03/01 08:24:48;;;;;;;0.10;0.10;;;;;;;-145.06;100.00;53807.31;10523618;28;20383;-83
2023/03/01 08:29:48;;;;;;;0.00;0.00;;;;;;;-145.06;100.00;53791.13;10543574;28;20131;-84
2023/03/01 08:34:49;;;;;;;0.03;0.03;;;;;;;-145.06;100.00;53821.50;10524140;28;20158;-84
2023/03/01 08:39:49;;;;;;;0.00;0.00;;;;;;;-145.06;100.00;53793.16;10526029;28;20350;-83
2023/03/01 08:44:49;;;;;;;0.00;0.00;;;;;;;-145.06;100.00;53781.00;10524923;28;20049;-84
2023/03/01 08:49:50;;;;;;;0.00;0.00;;;;;;;-145.06;100.00;53823.53;10525848;28;20031;-84
2023/03/01 08:54:51;;;;;;;0.00;0.00;;;;;;;-145.06;100.00;53821.50;10522210;28;20502;-85
2023/03/01 08:59:51;;;;;;;0.00;0.00;;;;;;;-145.06;100.00;53793.16;10525681;28;20471;-84
2023/03/01 09:04:51;;;;;;;0.00;0.00;;;;;;;-145.06;100.00;53855.94;10541659;28;20028;-83
2023/03/01 09:09:53;;;;;;;0.00;0.00;;;;;;;-145.06;100.00;53778.97;10524654;28;20024;-84
2023/03/01 09:14:53;;;;;;;0.10;0.10;;;;;;;-145.06;100.00;53778.97;10522206;28;20093;-84
2023/03/01 09:19:53;;;;;;;0.00;0.00;;;;;;;-145.06;100.00;53807.31;10522982;28;20096;-84
2023/03/01 09:24:54;;;;;;;0.00;0.00;;;;;;;-145.06;100.00;53807.31;10525008;28;20095;-83
2023/03/01 09:29:56;;;;;;;0.00;0.00;;;;;;;-145.06;100.00;53799.22;10524747;28;20028;-83
2023/03/01 09:35:04;;;;;;;0.00;0.00;;;;;;;-145.06;100.00;53789.09;10540157;28;20795;-85
2023/03/01 09:40:07;;;;;;;0.00;0.00;;;;;;;-145.06;100.00;53817.47;10524039;28;20496;-82
2023/03/01 09:45:20;;;;;;;0.00;0.00;;;;;;;-145.06;100.00;53789.09;10541076;28;20028;-83
2023/03/01 09:50:21;;;;;;;0.00;0.00;;;;;;;-145.06;100.00;53789.09;10537124;28;20499;-84
2023/03/01 09:55:38;;;;;;;0.00;0.00;;;;;;;-145.06;100.00;53825.56;10520601;28;20028;-83
2023/03/01 10:00:48;;;;;;;0.00;0.00;;;;;;;-145.06;100.00;53815.44;10526903;28;20050;-85
2023/03/01 10:06:14;;;;;;;0.00;0.00;;;;;;;-145.06;100.00;53783.03;10547966;28;20039;-84
2023/03/01 10:11:28;;;;;;;0.00;0.00;;;;;;;-145.06;100.00;53809.34;10529438;28;20119;-83
2023/03/01 10:16:42;;;;;;;0.00;0.00;;;;;;;-145.06;100.00;53819.47;10527486;28;20085;-82
2023/03/01 10:21:45;;;;;;;0.00;0.00;;;;;;;-145.06;100.00;53791.13;10528482;28;20032;-83
2023/03/01 10:26:56;;;;;;;0.00;0.00;;;;;;;-145.06;100.00;53787.06;10546019;28;20062;-84
2023/03/01 10:31:57;;;;;;;0.00;0.00;;;;;;;-145.06;100.00;53789.09;10545136;28;20123;-83
2023/03/01 10:37:25;;;;;;;0.00;0.00;;;;;;;-145.06;100.00;53837.72;10562106;22;20083;-85
2023/03/01 10:42:34;;;;;;;0.00;0.00;;;;;;;-145.06;100.00;53833.66;10561865;28;20031;-84
2023/03/01 10:47:34;;;;;;;0.00;0.00;;;;;;;-145.06;100.00;53795.19;10555736;28;20146;-85
2023/03/01 10:52:37;;;;;;;0.00;0.00;;;;;;;-145.06;100.00;53793.16;10546962;28;20032;-85
2023/03/01 10:57:42;;;;;;;0.00;0.00;;;;;;;-145.06;100.00;53807.31;10552652;28;20466;-85
2023/03/01 11:02:42;;;;;;;0.00;0.00;;;;;;;-145.06;100.00;53811.38;10546004;28;20024;-85
2023/03/01 11:07:56;;;;;;;0.00;0.00;;;;;;;-145.06;100.00;53851.88;10550500;28;20028;-85
2023/03/01 11:13:17;;;;;;;0.10;0.10;;;;;;;-145.06;100.00;53835.69;10552471;28;20274;-85
2023/03/01 11:18:22;;;;;;;0.00;0.00;;;;;;;-145.06;100.00;53787.06;10545706;28;20059;-84
2023/03/01 11:23:23;;;;;;;0.00;0.00;;;;;;;-145.06;100.00;53805.31;10554402;28;20063;-83
2023/03/01 11:28:27;;;;;;;0.00;0.00;;;;;;;-145.06;100.00;53868.09;10567403;28;20046;-85
2023/03/01 11:33:44;;;;;;;0.00;0.00;;;;;;;-145.06;100.00;53795.19;10535712;28;20119;-84
2023/03/01 11:38:44;;;;;;;0.00;0.00;;;;;;;-145.06;100.00;53801.25;10545982;28;20035;-85
2023/03/01 11:44:03;;;;;;;0.00;0.00;;;;;;;-145.06;100.00;53823.53;10552163;28;20028;-84
2023/03/01 11:49:28;;;;;;;0.00;0.00;;;;;;;-145.06;100.00;53809.34;10543895;28;20034;-85
2023/03/01 11:54:57;;;;;;;0.00;0.00;;;;;;;-145.06;100.00;53809.34;10535343;28;20058;-84
2023/03/01 12:00:31;;;;;;;0.00;0.00;;;;;;;-145.06;100.00;53781.00;10535034;28;20023;-85
2023/03/01 12:05:40;;;;;;;;;;;;;;;-145.06;100.00;53795.19;10533172;28;20028;-84
2023/03/01 12:10:59;;;;;;;0.00;0.00;;;;;;;-145.06;100.00;53783.03;10538451;28;19908;-83
2023/03/01 12:16:12;;;;;;;0.00;0.00;;;;;;;-145.06;100.00;53807.31;10532182;28;20028;-83
2023/03/01 12:21:38;;;;;;;0.00;0.00;;;;;;;-145.06;100.00;53821.50;10531925;28;20405;-83
2023/03/01 12:27:21;;;;;;;0.10;0.10;;;;;;;-145.06;100.00;53783.03;10547651;28;20028;-84
2023/03/01 12:32:48;;;;;;;0.00;0.00;;;;;;;-145.06;100.00;53839.72;10520355;28;20071;-82
2023/03/01 12:38:01;;;;;;;0.00;0.00;;;;;;;-145.06;100.00;53807.31;10531991;28;20040;-83
2023/03/01 12:43:24;;;;;;;0.00;0.00;;;;;;;-145.06;100.00;53783.03;10544607;28;20115;-84
2023/03/01 12:48:45;;;;;;;0.00;0.00;;;;;;;-145.06;100.00;53811.38;10545373;28;20059;-82
2023/03/01 12:53:48;;;;;;;0.00;0.00;;;;;;;-145.06;100.00;53785.06;10552388;28;20027;-84
2023/03/01 12:58:58;;;;;;;0.00;0.00;;;;;;;-145.06;100.00;53787.06;10553800;28;20075;-82
2023/03/01 13:04:36;;;;;;;0.10;0.10;;;;;;;-145.06;100.00;53789.09;10535372;28;20398;-84
2023/03/01 13:10:01;;;;;;;0.00;0.00;;;;;;;-145.06;100.00;53817.47;10525740;28;20024;-83
2023/03/01 13:15:01;;;;;;;0.00;0.00;;;;;;;-145.06;100.00;53801.25;10504398;28;20054;-85
2023/03/01 13:20:03;;;;;;;0.00;0.00;;;;;;;-145.06;100.00;53776.94;10538566;28;20035;-82
2023/03/01 13:25:19;;;;;;;0.00;0.00;;;;;;;-145.06;100.00;53758.72;10536650;28;20031;-84
2023/03/01 13:30:34;;;;;;;0.00;0.00;;;;;;;-145.06;100.00;53787.06;10531692;28;20481;-85
2023/03/01 13:35:43;;;;;;;0.00;0.00;;;;;;;-145.06;100.00;53815.44;10554241;28;20054;-82
2023/03/01 13:40:49;;;;;;;0.00;0.00;;;;;;;-145.06;100.00;53774.94;10551517;28;20032;-83
2023/03/01 13:45:49;;;;;;;0.00;0.00;;;;;;;-145.06;100.00;53815.44;10524353;28;20054;-83
2023/03/01 13:51:02;;;;;;;0.00;0.00;;;;;;;-145.06;100.00;53817.47;10535105;28;20032;-83
2023/03/01 13:56:12;;;;;;;0.00;0.00;;;;;;;-145.06;100.00;53811.38;10540958;28;20118;-84
2023/03/01 14:01:22;;;;;;;0.00;0.00;;;;;;;-145.06;100.00;53801.25;10548004;28;20111;-84
2023/03/01 14:06:31;;;;;;;0.00;0.00;;;;;;;-145.06;100.00;53815.44;10543002;28;20557;-83
2023/03/01 14:11:37;;;;;;;0.00;0.00;;;;;;;-145.06;100.00;53827.59;10524950;28;20051;-84
2023/03/01 14:16:55;;;;;;;0.00;0.00;;;;;;;-145.06;100.00;53821.50;10559004;28;20024;-83
2023/03/01 14:22:29;;;;;;;0.00;0.00;;;;;;;-145.06;100.00;53801.25;10534383;28;20028;-83
2023/03/01 14:27:39;;;;;;;0.00;0.00;;;;;;;-145.06;100.00;53831.63;10532495;28;20066;-84
2023/03/01 14:32:39;;;;;;;0.00;0.00;;;;;;;-145.06;100.00;53797.22;10550472;28;20042;-85
2023/03/01 14:37:40;;;;;;;0.00;0.00;;;;;;;-145.06;100.00;53781.00;10533123;28;20028;-83
2023/03/01 14:42:40;;;;;;;0.00;0.00;;;;;;;-145.06;100.00;53801.25;10528057;28;20265;-83
2023/03/01 14:47:40;;;;;;;0.00;0.00;;;;;;;-145.06;100.00;53807.31;10566933;28;20062;-82
2023/03/01 14:52:44;;;;;;;0.00;0.00;;;;;;;-145.06;100.00;53831.63;10537594;28;20126;-84
2023/03/01 14:57:48;;;;;;;0.00;0.00;;;;;;;-145.06;100.00;53823.53;10545330;28;20024;-83
2023/03/01 15:02:51;;;;;;;0.00;0.00;;;;;;;-145.06;100.00;53825.56;10540301;28;20028;-84
2023/03/01 15:07:52;;;;;;;0.00;0.00;;;;;;;-145.06;100.00;53787.06;10553468;28;20115;-82
2023/03/01 15:12:53;;;;;;;0.00;0.00;;;;;;;-145.06;100.00;53823.53;10539018;28;20032;-83
2023/03/01 15:17:57;;;;;;;0.00;0.00;;;;;;;-145.06;100.00;53809.34;10545971;28;20024;-84
2023/03/01 15:22:57;;;;;;;0.00;0.00;;;;;;;-145.06;100.00;53819.47;10538773;28;20436;-82
2023/03/01 15:28:00;;;;;;;0.00;0.00;;;;;;;-145.06;100.00;53821.50;10554157;28;20058;-82
2023/03/01 15:33:20;;;;;;;0.00;0.00;;;;;;;-145.06;100.00;53821.50;10532274;28;20032;-83
2023/03/01 15:38:54;;;;;;;0.00;0.00;;;;;;;-145.06;100.00;53795.19;10531703;28;20062;-83
2023/03/01 15:43:55;;;;;;;0.00;0.00;;;;;;;-145.06;100.00;53807.31;10557376;28;20046;-83
2023/03/01 15:48:59;;;;;;;0.00;0.00;;;;;;;-145.06;100.00;53819.47;10557962;28;20054;-82
2023/03/01 15:54:03;;;;;;;0.00;0.00;;;;;;;-145.06;100.00;53849.84;10560730;28;20094;-82
2023/03/01 15:59:04;;;;;;;0.00;0.00;;;;;;;-145.06;100.00;53803.28;10558346;28;20050;-81
2023/03/01 16:04:04;;;;;;;0.00;0.00;;;;;;;-145.06;100.00;53868.09;10535927;28;20053;-82
2023/03/01 16:09:05;;;;;;;0.00;0.00;;;;;;;-145.06;100.00;53811.38;10542300;28;20023;-83
2023/03/01 16:14:05;;;;;;;0.00;0.00;;;;;;;-145.06;100.00;53864.03;10550969;28;20595;-83
2023/03/01 16:19:05;;;;;;;0.00;0.00;;;;;;;-145.06;100.00;53833.66;10538628;28;20467;-84
2023/03/01 16:24:06;;;;;;;0.00;0.00;;;;;;;-145.06;100.00;53847.84;10532732;28;20070;-85
2023/03/01 16:29:06;;;;;;;0.00;0.00;;;;;;;-145.06;100.00;53837.72;10535479;28;20028;-85
2023/03/01 16:34:07;;;;;;;0.00;0.00;;;;;;;-145.06;100.00;53815.44;10548111;28;20027;-85
2023/03/01 16:39:09;;;;;;;0.00;0.00;;;;;;;-145.06;100.00;53813.41;10566810;28;20055;-85
2023/03/01 16:44:09;;;;;;;0.00;0.00;;;;;;;-145.06;100.00;53831.63;10534398;28;20083;-82
2023/03/01 16:49:09;;;;;;;0.00;0.00;;;;;;;-145.06;100.00;53825.56;10530538;28;20046;-83
2023/03/01 16:54:10;;;;;;;0.00;0.00;;;;;;;-145.06;100.00;53882.25;10549785;28;20043;-84
2023/03/01 16:59:11;;;;;;;0.00;0.00;;;;;;;-145.06;100.00;53837.72;10538093;28;20061;-83
2023/03/01 17:04:12;;;;;;;0.00;0.00;;;;;;;-145.06;100.00;53823.53;10532423;28;20036;-83
2023/03/01 17:09:12;;;;;;;0.00;0.00;;;;;;;-145.06;100.00;53837.72;10537526;28;20799;-84
2023/03/01 17:14:12;;;;;;;0.00;0.00;;;;;;;-145.06;100.00;53827.59;10541296;28;20035;-83
2023/03/01 17:19:17;;;;;;;0.00;0.00;;;;;;;-145.06;100.00;53839.72;10553008;28;20039;-84
2023/03/01 17:24:18;;;;;;;0.10;0.10;;;;;;;-145.06;100.00;53781.00;10554273;28;20032;-84
2023/03/01 17:29:18;;;;;;;0.00;0.00;;;;;;;-145.06;100.00;53827.59;10530525;28;20032;-83
2023/03/01 17:34:19;;;;;;;0.03;0.03;;;;;;;-145.06;100.00;53835.69;10550763;28;20032;-84
2023/03/01 17:39:24;;;;;;;0.00;0.00;;;;;;;-145.06;100.00;53843.78;10527430;28;20126;-84
2023/03/01 17:44:25;;;;;;;0.00;0.00;;;;;;;-145.06;100.00;53831.63;10529508;28;20026;-83
2023/03/01 17:49:25;;;;;;;0.00;0.00;;;;;;;-145.06;100.00;53827.59;10536626;28;20028;-82
2023/03/01 17:54:26;;;;;;;0.00;0.00;;;;;;;-145.06;100.00;53868.09;10526877;28;20028;-82
2023/03/01 17:59:30;;;;;;;0.00;0.00;;;;;;;-145.06;100.00;53855.94;10531233;28;20027;-83
2023/03/01 18:04:31;;;;;;;0.00;0.00;;;;;;;-145.06;100.00;53839.72;10532201;28;20042;-81
2023/03/01 18:09:31;;;;;;;0.00;0.00;;;;;;;-145.06;100.00;53841.75;10552109;28;20020;-83
2023/03/01 18:14:32;;;;;;;0.00;0.00;;;;;;;-145.06;100.00;53817.47;10538447;28;20031;-84
2023/03/01 18:19:33;;;;;;;0.00;0.00;;;;;;;-145.06;100.00;53807.31;10521796;28;20024;-82
2023/03/01 18:24:34;;;;;;;0.00;0.00;;;;;;;-145.06;100.00;53847.84;10542044;28;20082;-84
2023/03/01 18:29:37;;;;;;;0.00;0.00;;;;;;;-145.06;100.00;53864.03;10550526;28;20229;-83
2023/03/01 18:34:37;;;;;;;0.00;0.00;;;;;;;-145.06;100.00;53898.47;10539921;28;20035;-83
2023/03/01 18:39:40;;;;;;;0.00;0.00;;;;;;;-145.06;100.00;53847.84;10537858;28;20102;-84
2023/03/01 18:44:40;;;;;;;0.00;0.00;;;;;;;-145.06;100.00;53884.28;10565082;28;20312;-81
2023/03/01 18:49:41;;;;;;;0.10;0.10;;;;;;;-145.06;100.00;53809.34;10557550;28;20048;-83
2023/03/01 18:54:41;;;;;;;0.03;0.03;;;;;;;-145.06;100.00;53831.63;10543120;28;20062;-82
2023/03/01 18:59:41;;;;;;;0.00;0.00;;;;;;;-145.06;100.00;53823.53;10532075;28;20028;-81
2023/03/01 19:04:41;;;;;;;0.10;0.10;;;;;;;-145.06;100.00;53866.06;10545418;28;20386;-84
2023/03/01 19:09:42;;;;;;;0.00;0.00;;;;;;;-145.06;100.00;53849.84;10528718;28;20425;-83
2023/03/01 19:14:42;;;;;;;0.00;0.00;;;;;;;-145.06;100.00;53827.59;10545979;28;20274;-83
2023/03/01 19:19:42;;;;;;;0.10;0.10;;;;;;;-145.06;100.00;53845.81;10542965;28;20276;-84
2023/03/01 19:24:43;;;;;;;0.05;0.05;;;;;;;-145.06;100.00;53862.00;10530730;28;20079;-83
2023/03/01 19:29:43;;;;;;;0.10;0.10;;;;;;;-145.06;100.00;53819.47;10527202;28;20487;-83
2023/03/01 19:34:45;;;;;;;0.08;0.08;;;;;;;-145.06;100.00;53855.94;10524426;28;20281;-83
2023/03/01 19:39:46;;;;;;;0.00;0.00;;;;;;;-145.06;100.00;53831.63;10532072;28;20135;-83
2023/03/01 19:44:47;;;;;;;0.00;0.00;;;;;;;-145.06;100.00;53829.59;10526059;28;20034;-84
2023/03/01 19:49:47;;;;;;;0.00;0.00;;;;;;;-145.06;100.00;53843.78;10544539;28;20066;-83
2023/03/01 19:54:47;;;;;;;0.00;0.00;;;;;;;-145.06;100.00;53847.84;10532766;28;20020;-83
2023/03/01 19:59:48;;;;;;;0.00;0.00;;;;;;;-145.06;100.00;53859.97;10530847;28;20363;-81
2023/03/01 20:04:48;;;;;;;0.00;0.00;;;;;;;-145.06;100.00;53855.94;10537400;28;20493;-82
2023/03/01 20:09:48;;;;;;;0.00;0.00;;;;;;;-145.06;100.00;53827.59;10532441;28;20270;-84
2023/03/01 20:14:50;;;;;;;0.00;0.00;;;;;;;-145.06;100.00;53845.81;10524432;28;20270;-83
2023/03/01 20:19:50;;;;;;;0.00;0.00;;;;;;;-145.06;100.00;53880.22;10522775;28;20058;-83
2023/03/01 20:24:50;;;;;;;0.00;0.00;;;;;;;-145.06;100.00;53868.09;10539193;28;20030;-83
2023/03/01 20:29:51;;;;;;;0.00;0.00;;;;;;;-145.06;100.00;53835.69;10550829;28;20038;-83
2023/03/01 20:34:53;;;;;;;0.00;0.00;;;;;;;-145.06;100.00;53829.59;10544366;28;20047;-84
2023/03/01 20:39:54;;;;;;;0.00;0.00;;;;;;;-145.06;100.00;53841.75;10516756;28;20662;-82
2023/03/01 20:44:54;;;;;;;0.00;0.00;;;;;;;-145.06;100.00;53839.72;10520114;28;20043;-82
2023/03/01 20:49:57;;;;;;;0.00;0.00;;;;;;;-145.06;100.00;53841.75;10526331;28;20098;-83
2023/03/01 20:54:58;;;;;;;0.00;0.00;;;;;;;-145.06;100.00;53843.78;10529495;28;20032;-81
2023/03/01 20:59:58;;;;;;;0.10;0.10;;;;;;;-145.06;100.00;53815.44;10546242;28;20028;-82
2023/03/01 21:04:59;;;;;;;0.00;0.00;;;;;;;-145.06;100.00;53859.97;10525509;28;20054;-83
2023/03/01 21:09:59;;;;;;;0.10;0.10;;;;;;;-145.06;100.00;53853.91;10545394;28;20034;-82
2023/03/01 21:14:59;;;;;;;0.10;0.10;;;;;;;-145.06;100.00;53872.13;10523824;28;20040;-82
2023/03/01 21:20:00;;;;;;;0.10;0.10;;;;;;;-145.06;100.00;53839.72;10511799;28;20281;-82
2023/03/01 21:25:00;;;;;;;0.00;0.00;;;;;;;-145.06;100.00;53841.75;10519110;28;20491;-83
2023/03/01 21:30:01;;;;;;;0.10;0.10;;;;;;;-145.06;100.00;53862.00;10538824;28;20708;-83
2023/03/01 21:35:01;;;;;;;0.00;0.00;;;;;;;-145.06;100.00;53847.84;10520698;28;20031;-84
2023/03/01 21:40:03;;;;;;;0.10;0.10;;;;;;;-145.06;100.00;53853.91;10522855;28;20119;-85
2023/03/01 21:45:04;;;;;;;0.00;0.00;;;;;;;-145.06;100.00;53884.28;10525186;28;20043;-86
2023/03/01 21:50:07;;;;;;;0.00;0.00;;;;;;;-145.06;100.00;53884.28;10530923;28;20036;-84
2023/03/01 21:55:08;;;;;;;0.08;0.08;;;;;;;-145.06;100.00;53859.97;10550561;28;20097;-85
2023/03/01 22:00:11;;;;;;;0.00;0.00;;;;;;;-145.06;100.00;53831.63;10540335;28;20051;-84
2023/03/01 22:05:12;;;;;;;0.00;0.00;;;;;;;-145.06;100.00;53853.91;10546073;28;20118;-83
2023/03/01 22:10:12;;;;;;;0.00;0.00;;;;;;;-145.06;100.00;53851.88;10536227;28;20152;-84
2023/03/01 22:15:12;;;;;;;0.05;0.05;;;;;;;-145.06;100.00;53841.75;10531333;28;20032;-84
2023/03/01 22:20:13;;;;;;;0.10;0.10;;;;;;;-145.06;100.00;53839.72;10526025;28;20036;-85
2023/03/01 22:25:13;;;;;;;0.00;0.00;;;;;;;-145.06;100.00;53819.47;10537074;28;20104;-83
2023/03/01 22:30:14;;;;;;;0.10;0.10;;;;;;;-145.06;100.00;53862.00;10543906;28;20467;-83
2023/03/01 22:35:14;;;;;;;0.00;0.00;;;;;;;-145.06;100.00;53855.94;10549160;28;20039;-83
2023/03/01 22:40:14;;;;;;;0.00;0.00;;;;;;;-145.06;100.00;53862.00;10558457;22;20138;-83
2023/03/01 22:45:15;;;;;;;0.10;0.10;;;;;;;-145.06;100.00;53870.09;10546297;28;20055;-83